createdAt,value
2023-02-21T00:01:58.013Z,12.80
2023-02-21T00:16:58.598Z,11.70
2023-02-21T00:31:58.272Z,13.20
2023-02-21T00:46:58.840Z,11.80
2023-02-21T01:02:00.785Z,16.70
2023-02-21T01:17:12.545Z,12.00
2023-02-21T01:32:06.309Z,19.70
2023-02-21T01:47:06.356Z,18.80
2023-02-21T02:02:06.059Z,17.30
2023-02-21T02:17:06.127Z,15.70
2023-02-21T02:32:06.398Z,18.60
2023-02-21T02:47:06.725Z,16.20
2023-02-21T03:02:07.346Z,15.50
2023-02-21T03:17:07.038Z,14.70
2023-02-21T03:32:07.668Z,14.80
2023-02-21T03:47:07.672Z,13.60
2023-02-21T04:02:07.865Z,13.60
2023-02-21T04:17:08.401Z,12.50
2023-02-21T04:32:09.086Z,14.70
2023-02-21T04:47:09.989Z,17.40
2023-02-21T05:02:10.178Z,13.90
2023-02-21T05:17:10.262Z,16.20
2023-02-21T05:32:11.415Z,15.10
2023-02-21T05:47:11.959Z,14.40
2023-02-21T06:02:12.078Z,14.90
2023-02-21T06:17:12.588Z,7.40
2023-02-21T06:32:13.235Z,3.40
2023-02-21T06:47:14.253Z,4.10
2023-02-21T07:02:14.857Z,3.40
2023-02-21T07:17:14.922Z,2.30
2023-02-21T07:32:14.643Z,1.50
2023-02-21T07:47:14.707Z,1.10
2023-02-21T08:02:15.215Z,2.20
2023-02-21T08:17:15.297Z,1.10
2023-02-21T08:32:15.446Z,2.80
2023-02-21T08:47:15.795Z,4.50
2023-02-21T09:02:16.940Z,5.40
2023-02-21T09:17:16.954Z,3.00
2023-02-21T09:32:17.585Z,3.60
2023-02-21T09:47:17.650Z,6.10
2023-02-21T10:02:17.773Z,9.70
2023-02-21T10:17:18.337Z,7.90
2023-02-21T10:32:19.444Z,12.40
2023-02-21T10:47:20.533Z,6.00
2023-02-21T11:02:21.575Z,6.20
2023-02-21T11:17:22.140Z,10.10
2023-02-21T11:32:22.357Z,28.80
2023-02-21T11:47:22.893Z,11.20
2023-02-21T12:02:23.645Z,8.90
2023-02-21T12:17:24.535Z,8.90
2023-02-21T12:32:24.795Z,9.10
2023-02-21T12:47:26.021Z,9.10
2023-02-21T13:02:27.022Z,12.60
2023-02-21T13:17:27.508Z,11.80
2023-02-21T13:32:28.126Z,9.60
2023-02-21T13:47:29.525Z,17.50
2023-02-21T14:02:30.040Z,13.40
2023-02-21T14:17:31.031Z,10.40
2023-02-21T14:32:31.244Z,8.20
2023-02-21T14:47:31.825Z,9.00
2023-02-21T15:02:32.779Z,22.20
2023-02-21T15:17:32.993Z,14.30
2023-02-21T15:32:33.585Z,15.30
2023-02-21T15:47:33.951Z,12.10
2023-02-21T16:02:35.468Z,11.70
2023-02-21T16:17:36.029Z,14.90
2023-02-21T16:32:37.097Z,14.30
2023-02-21T16:47:37.274Z,14.80
2023-02-21T17:02:37.956Z,11.80
2023-02-21T17:17:38.955Z,17.60
2023-02-21T17:32:39.141Z,22.70
2023-02-21T17:47:39.665Z,23.50
2023-02-21T18:02:40.291Z,15.90
2023-02-21T18:17:41.422Z,18.20
2023-02-21T18:32:42.922Z,26.70
2023-02-21T18:47:43.083Z,19.70
2023-02-21T19:02:43.690Z,16.00
2023-02-21T19:17:44.275Z,16.80
2023-02-21T19:32:44.896Z,13.50
2023-02-21T19:47:46.003Z,18.10
2023-02-21T20:02:47.613Z,22.50
2023-02-21T20:17:47.711Z,9.30
2023-02-21T20:32:48.317Z,15.20
2023-02-21T20:47:48.898Z,13.10
2023-02-21T21:02:49.515Z,21.50
2023-02-21T21:17:50.608Z,22.40
2023-02-21T21:32:50.725Z,19.00
2023-02-21T21:47:51.335Z,23.90
2023-02-21T22:02:52.345Z,20.70
2023-02-21T22:17:52.517Z,15.40
2023-02-21T22:32:53.149Z,11.20
2023-02-21T22:47:53.744Z,20.50
2023-02-21T23:02:54.414Z,20.40
2023-02-21T23:17:54.939Z,19.10
2023-02-21T23:32:55.963Z,20.00
2023-02-21T23:47:56.152Z,12.80
